createdAt,value
2019-05-20T00:01:05.334Z,12.50
2019-05-20T00:03:34.996Z,12.50
2019-05-20T00:06:05.045Z,12.50
2019-05-20T00:08:34.743Z,12.60
2019-05-20T00:11:04.891Z,12.60
2019-05-20T00:13:34.793Z,12.60
2019-05-20T00:16:04.897Z,12.60
2019-05-20T00:18:34.598Z,12.60
2019-05-20T00:21:05.101Z,12.60
2019-05-20T00:23:34.841Z,12.60
2019-05-20T00:26:04.971Z,12.70
2019-05-20T00:28:34.758Z,12.70
2019-05-20T00:31:04.969Z,12.70
2019-05-20T00:33:34.718Z,12.70
2019-05-20T00:36:05.231Z,12.70
2019-05-20T00:38:34.941Z,12.70
2019-05-20T00:41:04.937Z,12.80
2019-05-20T00:43:34.767Z,12.80
2019-05-20T00:46:04.957Z,12.80
2019-05-20T00:48:34.602Z,12.70
2019-05-20T00:51:05.019Z,12.80
2019-05-20T00:53:34.788Z,12.80
2019-05-20T00:56:04.966Z,12.80
2019-05-20T00:58:34.729Z,12.80
2019-05-20T01:01:04.989Z,12.80
2019-05-20T01:03:34.696Z,12.80
2019-05-20T01:06:05.004Z,12.80
2019-05-20T01:08:34.672Z,12.80
2019-05-20T01:11:04.954Z,12.80
2019-05-20T01:13:34.632Z,12.80
2019-05-20T01:16:04.954Z,12.80
2019-05-20T01:18:34.717Z,12.80
2019-05-20T01:21:05.022Z,12.70
2019-05-20T01:23:34.716Z,12.80
2019-05-20T01:26:05.043Z,12.80
2019-05-20T01:28:34.757Z,12.70
2019-05-20T01:31:04.967Z,12.80
2019-05-20T01:33:34.711Z,12.80
2019-05-20T01:36:05.022Z,12.70
2019-05-20T01:38:34.716Z,12.80
2019-05-20T01:41:04.936Z,12.70
2019-05-20T01:43:34.675Z,12.70
2019-05-20T01:46:04.910Z,12.70
2019-05-20T01:48:34.602Z,12.70
2019-05-20T01:51:05.146Z,12.70
2019-05-20T01:53:34.916Z,12.70
2019-05-20T01:56:04.959Z,12.70
2019-05-20T01:58:34.660Z,12.70
2019-05-20T02:01:05.101Z,12.70
2019-05-20T02:03:34.803Z,12.70
2019-05-20T02:06:05.010Z,12.70
2019-05-20T02:08:34.620Z,12.70
2019-05-20T02:11:05.016Z,12.70
2019-05-20T02:13:53.546Z,12.60
2019-05-20T02:16:24.534Z,12.60
2019-05-20T02:18:54.220Z,12.50
2019-05-20T02:21:23.974Z,12.50
2019-05-20T02:23:53.660Z,12.50
2019-05-20T02:26:23.605Z,12.40
2019-05-20T02:28:53.237Z,12.50
2019-05-20T02:31:23.059Z,12.50
2019-05-20T02:33:53.136Z,12.50
2019-05-20T02:36:23.028Z,12.40
2019-05-20T02:38:52.813Z,12.40
2019-05-20T02:41:22.479Z,12.40
2019-05-20T02:43:52.239Z,12.40
2019-05-20T02:46:22.014Z,12.30
2019-05-20T02:48:51.678Z,12.40
2019-05-20T02:51:31.041Z,12.40
2019-05-20T02:54:01.973Z,12.30
2019-05-20T02:56:31.828Z,12.30
2019-05-20T02:59:01.821Z,12.40
2019-05-20T03:01:31.588Z,12.40
2019-05-20T03:04:11.330Z,12.40
2019-05-20T03:06:33.544Z,12.30
2019-05-20T03:09:04.243Z,12.30
2019-05-20T03:11:33.877Z,12.30
2019-05-20T03:14:03.706Z,12.30
2019-05-20T03:16:33.513Z,12.30
2019-05-20T03:19:03.243Z,12.30
2019-05-20T03:21:32.887Z,12.30
2019-05-20T03:24:02.510Z,12.30
2019-05-20T03:26:32.147Z,12.30
2019-05-20T03:29:01.888Z,12.30
2019-05-20T03:31:31.513Z,12.30
2019-05-20T03:34:01.221Z,12.30
2019-05-20T03:36:31.051Z,12.30
2019-05-20T03:39:00.771Z,12.30
2019-05-20T03:41:30.453Z,12.30
2019-05-20T03:44:00.264Z,12.30
2019-05-20T03:46:30.163Z,12.30
2019-05-20T03:48:59.906Z,12.40
2019-05-20T03:51:29.777Z,12.30
2019-05-20T03:53:59.576Z,12.30
2019-05-20T03:56:29.249Z,12.40
2019-05-20T03:58:58.956Z,12.40
2019-05-20T04:01:28.645Z,12.40
2019-05-20T04:03:58.494Z,12.40
2019-05-20T04:06:28.208Z,12.40
2019-05-20T04:08:57.953Z,12.40
2019-05-20T04:11:28.048Z,12.40
2019-05-20T04:13:57.830Z,12.30
2019-05-20T04:16:27.562Z,12.40
2019-05-20T04:18:57.289Z,12.40
2019-05-20T04:21:27.223Z,12.40
2019-05-20T04:24:00.951Z,12.40
2019-05-20T04:26:28.387Z,12.40
2019-05-20T04:28:58.165Z,12.40
2019-05-20T04:31:27.829Z,12.40
2019-05-20T04:33:58.853Z,12.40
2019-05-20T04:36:28.622Z,12.40
2019-05-20T04:38:59.305Z,12.40
2019-05-20T04:41:29.066Z,12.40
2019-05-20T04:43:58.903Z,12.40
2019-05-20T04:46:28.736Z,12.40
2019-05-20T04:48:58.428Z,12.40
2019-05-20T04:51:28.161Z,12.50
2019-05-20T04:53:57.848Z,12.50
2019-05-20T04:56:29.403Z,12.50
2019-05-20T04:58:58.807Z,12.50
2019-05-20T05:01:28.461Z,12.50
2019-05-20T05:03:58.154Z,12.50
2019-05-20T05:06:27.857Z,12.50
2019-05-20T05:08:58.470Z,12.50
2019-05-20T05:11:28.205Z,12.50
2019-05-20T05:13:57.993Z,12.50
2019-05-20T05:16:27.662Z,12.50
2019-05-20T05:18:57.382Z,12.60
2019-05-20T05:21:27.490Z,12.50
2019-05-20T05:23:59.494Z,12.60
2019-05-20T05:26:28.862Z,12.60
2019-05-20T05:28:58.574Z,12.60
2019-05-20T05:31:28.218Z,12.50
2019-05-20T05:33:57.901Z,12.60
2019-05-20T05:36:27.617Z,12.60
2019-05-20T05:38:57.253Z,12.60
2019-05-20T05:41:27.078Z,12.60
2019-05-20T05:43:56.759Z,12.60
2019-05-20T05:46:26.376Z,12.60
2019-05-20T05:48:56.039Z,12.70
2019-05-20T05:51:25.747Z,12.70
2019-05-20T05:53:55.397Z,12.70
2019-05-20T05:56:25.153Z,12.70
2019-05-20T05:58:54.869Z,12.80
2019-05-20T06:01:24.666Z,12.80
2019-05-20T06:03:54.269Z,12.80
2019-05-20T06:06:23.961Z,12.90
2019-05-20T06:08:54.618Z,12.90
2019-05-20T06:11:24.239Z,12.90
2019-05-20T06:13:53.893Z,12.90
2019-05-20T06:16:35.844Z,13.00
2019-05-20T06:18:54.923Z,13.00
2019-05-20T06:21:24.533Z,13.00
2019-05-20T06:23:54.187Z,13.00
2019-05-20T06:26:23.874Z,13.10
2019-05-20T06:28:54.545Z,13.20
2019-05-20T06:31:24.169Z,13.20
2019-05-20T06:33:53.878Z,13.20
2019-05-20T06:36:26.831Z,13.30
2019-05-20T06:39:11.602Z,13.30
2019-05-20T06:41:41.645Z,13.30
2019-05-20T06:44:11.507Z,13.40
2019-05-20T06:46:41.154Z,13.40
2019-05-20T06:49:10.933Z,13.40
2019-05-20T06:51:40.625Z,13.40
2019-05-20T06:54:10.310Z,13.40
2019-05-20T06:56:40.221Z,13.50
2019-05-20T06:59:09.971Z,13.50
2019-05-20T07:01:39.626Z,13.50
2019-05-20T07:04:09.453Z,13.50
2019-05-20T07:06:46.906Z,13.50
2019-05-20T07:09:10.619Z,13.60
2019-05-20T07:11:40.274Z,13.60
2019-05-20T07:14:11.046Z,13.60
2019-05-20T07:16:40.694Z,13.60
2019-05-20T07:19:10.448Z,13.70
2019-05-20T07:21:40.143Z,13.70
2019-05-20T07:24:09.989Z,13.70
2019-05-20T07:26:39.666Z,13.70
2019-05-20T07:29:09.412Z,13.80
2019-05-20T07:31:39.265Z,13.80
2019-05-20T07:34:08.973Z,13.80
2019-05-20T07:36:38.612Z,13.80
2019-05-20T07:39:09.270Z,13.90
2019-05-20T07:41:41.392Z,13.80
2019-05-20T07:44:10.335Z,13.90
2019-05-20T07:46:40.392Z,13.90
2019-05-20T07:49:10.862Z,13.90
2019-05-20T07:51:41.982Z,14.00
2019-05-20T07:54:13.070Z,14.00
2019-05-20T07:56:46.029Z,14.10
2019-05-20T07:59:17.974Z,14.10
2019-05-20T08:01:47.640Z,14.20
2019-05-20T08:04:17.314Z,14.20
2019-05-20T08:06:51.572Z,14.20
2019-05-20T08:09:21.508Z,14.30
2019-05-20T08:11:51.330Z,14.30
2019-05-20T08:14:21.047Z,14.40
2019-05-20T08:16:50.758Z,14.40
2019-05-20T08:19:20.488Z,14.40
2019-05-20T08:21:50.702Z,14.50
2019-05-20T08:24:20.474Z,14.50
2019-05-20T08:26:50.205Z,14.60
2019-05-20T08:29:19.947Z,14.60
2019-05-20T08:31:49.732Z,14.60
2019-05-20T08:34:19.558Z,14.70
2019-05-20T08:36:50.317Z,14.70
2019-05-20T08:39:20.093Z,14.70
2019-05-20T08:41:49.847Z,14.70
2019-05-20T08:44:20.693Z,14.80
2019-05-20T08:46:50.370Z,14.80
2019-05-20T08:49:20.078Z,14.90
2019-05-20T08:51:49.881Z,14.90
2019-05-20T08:54:19.614Z,15.00
2019-05-20T08:56:49.611Z,15.00
2019-05-20T08:59:19.408Z,15.00
2019-05-20T09:01:49.098Z,15.00
2019-05-20T09:04:18.827Z,15.00
2019-05-20T09:06:48.647Z,15.10
2019-05-20T09:09:18.378Z,15.10
2019-05-20T09:11:48.293Z,15.10
2019-05-20T09:14:18.146Z,15.20
2019-05-20T09:16:47.820Z,15.20
2019-05-20T09:19:17.776Z,15.30
2019-05-20T09:21:47.418Z,15.30
2019-05-20T09:24:19.032Z,15.40
2019-05-20T09:26:48.476Z,15.40
2019-05-20T09:29:18.213Z,15.50
2019-05-20T09:31:48.042Z,15.50
2019-05-20T09:34:17.912Z,15.60
2019-05-20T09:36:47.646Z,15.60
2019-05-20T09:39:17.327Z,15.70
2019-05-20T09:41:46.935Z,15.70
2019-05-20T09:44:16.596Z,15.80
2019-05-20T09:46:46.346Z,15.80
2019-05-20T09:49:15.990Z,15.90
2019-05-20T09:51:45.720Z,15.90
2019-05-20T09:54:15.445Z,16.00
2019-05-20T09:56:45.310Z,16.00
2019-05-20T09:59:16.483Z,16.10
2019-05-20T10:01:46.349Z,16.20
2019-05-20T10:04:16.083Z,16.30
2019-05-20T10:06:45.722Z,16.40
2019-05-20T10:09:15.497Z,16.50
2019-05-20T10:11:45.493Z,16.50
2019-05-20T10:14:15.166Z,16.60
2019-05-20T10:16:44.905Z,16.70
2019-05-20T10:19:14.592Z,16.80
2019-05-20T10:21:44.253Z,16.90
2019-05-20T10:24:14.006Z,17.00
2019-05-20T10:26:43.694Z,17.10
2019-05-20T10:29:13.380Z,17.10
2019-05-20T10:31:43.248Z,17.20
2019-05-20T10:34:12.899Z,17.30
2019-05-20T10:36:42.714Z,17.40
2019-05-20T10:39:12.502Z,17.50
2019-05-20T10:41:42.226Z,17.60
2019-05-20T10:44:11.950Z,17.70
2019-05-20T10:46:41.948Z,17.80
2019-05-20T10:49:11.674Z,17.80
2019-05-20T10:51:41.390Z,17.90
2019-05-20T10:54:11.093Z,18.00
2019-05-20T10:56:40.821Z,18.00
2019-05-20T10:59:12.094Z,18.20
2019-05-20T11:01:41.793Z,18.40
2019-05-20T11:04:11.425Z,18.50
2019-05-20T11:06:42.071Z,18.60
2019-05-20T11:09:14.409Z,18.70
2019-05-20T11:11:43.093Z,18.90
2019-05-20T11:14:12.697Z,19.00
2019-05-20T11:16:42.358Z,19.10
2019-05-20T11:19:11.993Z,19.20
2019-05-20T11:21:41.644Z,19.30
2019-05-20T11:24:11.315Z,19.50
2019-05-20T11:26:41.029Z,19.50
2019-05-20T11:29:10.715Z,19.60
2019-05-20T11:31:41.614Z,19.70
2019-05-20T11:34:11.554Z,19.90
2019-05-20T11:36:41.378Z,20.10
2019-05-20T11:39:11.162Z,20.20
2019-05-20T11:41:52.627Z,20.40
2019-05-20T11:44:12.821Z,20.50
2019-05-20T11:46:42.863Z,20.70
2019-05-20T11:49:12.557Z,20.90
2019-05-20T11:51:42.196Z,21.00
2019-05-20T11:54:11.883Z,21.00
2019-05-20T11:56:41.571Z,21.20
2019-05-20T11:59:11.296Z,21.40
2019-05-20T12:01:40.897Z,21.60
2019-05-20T12:04:10.526Z,21.70
2019-05-20T12:06:40.128Z,21.80
2019-05-20T12:09:09.854Z,22.00
2019-05-20T12:11:39.473Z,22.10
2019-05-20T12:14:09.174Z,22.30
2019-05-20T12:16:38.793Z,22.40
2019-05-20T12:19:08.425Z,22.50
2019-05-20T12:21:38.077Z,22.50
2019-05-20T12:24:07.732Z,22.40
2019-05-20T12:26:37.397Z,22.40
2019-05-20T12:29:07.031Z,22.30
2019-05-20T12:31:36.678Z,22.20
2019-05-20T12:34:06.690Z,22.20
2019-05-20T12:36:36.472Z,22.30
2019-05-20T12:39:07.117Z,22.30
2019-05-20T12:41:36.964Z,22.30
2019-05-20T12:44:12.962Z,22.30
2019-05-20T12:46:38.146Z,22.30
2019-05-20T12:49:07.970Z,22.30
2019-05-20T12:51:37.769Z,22.20
2019-05-20T12:54:07.717Z,22.00
2019-05-20T12:56:37.416Z,22.00
2019-05-20T12:59:07.062Z,22.00
2019-05-20T13:01:36.741Z,22.10
2019-05-20T13:04:06.719Z,22.10
2019-05-20T13:06:36.593Z,22.10
2019-05-20T13:09:07.434Z,22.00
2019-05-20T13:11:37.130Z,22.00
2019-05-20T13:14:06.833Z,22.00
2019-05-20T13:16:36.557Z,22.10
2019-05-20T13:19:06.243Z,22.20
2019-05-20T13:21:36.028Z,22.40
2019-05-20T13:24:05.741Z,22.40
2019-05-20T13:26:35.355Z,22.40
2019-05-20T13:29:05.075Z,22.40
2019-05-20T13:31:34.753Z,22.30
2019-05-20T13:34:04.962Z,22.30
2019-05-20T13:36:34.593Z,22.30
2019-05-20T13:39:07.479Z,22.40
2019-05-20T13:41:37.194Z,22.50
2019-05-20T13:44:06.901Z,22.40
2019-05-20T13:46:36.569Z,22.40
2019-05-20T13:49:06.378Z,22.40
2019-05-20T13:51:38.512Z,22.40
2019-05-20T13:54:07.482Z,22.50
2019-05-20T13:56:37.218Z,22.60
2019-05-20T13:59:06.895Z,22.60
2019-05-20T14:01:36.600Z,22.60
2019-05-20T14:04:06.225Z,22.60
2019-05-20T14:06:35.988Z,22.60
2019-05-20T14:09:07.561Z,22.70
2019-05-20T14:11:37.609Z,22.70
2019-05-20T14:14:07.728Z,22.70
2019-05-20T14:16:38.463Z,22.80
2019-05-20T14:19:08.427Z,22.70
2019-05-20T14:21:38.249Z,22.70
2019-05-20T14:24:08.116Z,22.60
2019-05-20T14:26:37.910Z,22.60
2019-05-20T14:29:07.894Z,22.60
2019-05-20T14:31:37.729Z,22.60
2019-05-20T14:34:08.358Z,22.60
2019-05-20T14:36:40.269Z,22.50
2019-05-20T14:39:09.604Z,22.50
2019-05-20T14:41:39.567Z,22.50
2019-05-20T14:44:09.477Z,22.40
2019-05-20T14:46:39.150Z,22.40
2019-05-20T14:49:08.796Z,22.40
2019-05-20T14:51:38.401Z,22.50
2019-05-20T14:54:08.055Z,22.50
2019-05-20T14:56:37.777Z,22.40
2019-05-20T14:59:07.436Z,22.40
2019-05-20T15:01:37.061Z,22.40
2019-05-20T15:04:06.802Z,22.30
2019-05-20T15:06:36.431Z,22.20
2019-05-20T15:09:06.709Z,22.20
2019-05-20T15:11:38.672Z,22.10
2019-05-20T15:14:07.898Z,22.10
2019-05-20T15:16:37.620Z,22.00
2019-05-20T15:19:07.321Z,22.00
2019-05-20T15:21:38.187Z,21.90
2019-05-20T15:24:08.621Z,21.80
2019-05-20T15:26:38.489Z,21.70
2019-05-20T15:29:08.266Z,21.60
2019-05-20T15:31:38.207Z,21.50
2019-05-20T15:34:07.831Z,21.40
2019-05-20T15:36:37.521Z,21.30
2019-05-20T15:39:07.289Z,21.20
2019-05-20T15:41:37.000Z,21.20
2019-05-20T15:44:07.718Z,21.10
2019-05-20T15:46:37.366Z,21.00
2019-05-20T15:49:07.067Z,21.00
2019-05-20T15:51:36.674Z,20.90
2019-05-20T15:54:06.375Z,20.80
2019-05-20T15:56:36.102Z,20.70
2019-05-20T15:59:06.697Z,20.70
2019-05-20T16:01:36.354Z,20.60
2019-05-20T16:04:06.049Z,20.50
2019-05-20T16:06:35.663Z,20.40
2019-05-20T16:09:06.823Z,20.30
2019-05-20T16:11:36.632Z,20.30
2019-05-20T16:14:06.442Z,20.30
2019-05-20T16:16:36.130Z,20.20
2019-05-20T16:19:05.842Z,20.10
2019-05-20T16:21:35.800Z,20.00
2019-05-20T16:24:05.587Z,20.00
2019-05-20T16:26:35.405Z,20.00
2019-05-20T16:29:05.177Z,19.90
2019-05-20T16:31:34.930Z,20.00
2019-05-20T16:34:05.367Z,20.00
2019-05-20T16:36:35.535Z,19.90
2019-05-20T16:39:07.931Z,19.90
2019-05-20T16:41:37.622Z,19.80
2019-05-20T16:44:07.493Z,19.90
2019-05-20T16:46:37.166Z,19.80
2019-05-20T16:49:06.964Z,19.90
2019-05-20T16:51:36.960Z,19.80
2019-05-20T16:54:06.836Z,19.90
2019-05-20T16:56:37.437Z,19.90
2019-05-20T16:59:09.208Z,19.90
2019-05-20T17:01:46.180Z,20.00
2019-05-20T17:04:10.347Z,20.10
2019-05-20T17:06:40.152Z,20.10
2019-05-20T17:09:10.061Z,20.20
2019-05-20T17:11:39.867Z,20.30
2019-05-20T17:14:10.674Z,20.30
2019-05-20T17:16:41.840Z,20.30
2019-05-20T17:19:11.558Z,20.40
2019-05-20T17:21:41.346Z,20.40
2019-05-20T17:24:11.405Z,20.40
2019-05-20T17:26:41.325Z,20.40
2019-05-20T17:29:11.014Z,20.40
2019-05-20T17:31:40.850Z,20.40
2019-05-20T17:34:10.763Z,20.40
2019-05-20T17:36:40.635Z,20.40
2019-05-20T17:39:10.365Z,20.40
2019-05-20T17:41:40.114Z,20.30
2019-05-20T17:44:09.908Z,20.20
2019-05-20T17:46:39.700Z,20.20
2019-05-20T17:49:09.334Z,20.10
2019-05-20T17:51:39.123Z,20.00
2019-05-20T17:54:09.318Z,19.90
2019-05-20T17:56:39.222Z,19.90
2019-05-20T17:59:08.999Z,19.80
2019-05-20T18:01:38.883Z,19.80
2019-05-20T18:04:08.716Z,19.70
2019-05-20T18:06:38.490Z,19.70
2019-05-20T18:09:08.842Z,19.60
2019-05-20T18:11:38.745Z,19.50
2019-05-20T18:14:08.557Z,19.50
2019-05-20T18:16:38.475Z,19.50
2019-05-20T18:19:08.228Z,19.40
2019-05-20T18:21:38.147Z,19.40
2019-05-20T18:24:07.896Z,19.30
2019-05-20T18:26:37.608Z,19.20
2019-05-20T18:29:07.261Z,19.10
2019-05-20T18:31:37.133Z,19.10
2019-05-20T18:34:07.968Z,19.00
2019-05-20T18:36:37.703Z,19.00
2019-05-20T18:39:07.585Z,18.90
2019-05-20T18:41:37.715Z,18.90
2019-05-20T18:44:07.409Z,18.90
2019-05-20T18:46:37.151Z,18.80
2019-05-20T18:49:09.051Z,18.80
2019-05-20T18:51:38.927Z,18.70
2019-05-20T18:54:08.660Z,18.60
2019-05-20T18:56:38.425Z,18.60
2019-05-20T18:59:08.299Z,18.50
2019-05-20T19:01:50.659Z,18.50
2019-05-20T19:04:09.463Z,18.40
2019-05-20T19:06:39.168Z,18.40
2019-05-20T19:09:10.234Z,18.40
2019-05-20T19:11:39.963Z,18.30
2019-05-20T19:14:11.043Z,18.30
2019-05-20T19:16:41.682Z,18.20
2019-05-20T19:19:11.395Z,18.20
2019-05-20T19:21:41.153Z,18.00
2019-05-20T19:24:10.817Z,18.00
2019-05-20T19:26:40.581Z,17.90
2019-05-20T19:29:10.434Z,17.80
2019-05-20T19:31:40.150Z,17.70
2019-05-20T19:34:09.872Z,17.60
2019-05-20T19:36:39.563Z,17.60
2019-05-20T19:39:09.462Z,17.50
2019-05-20T19:41:41.757Z,17.50
2019-05-20T19:44:13.411Z,17.40
2019-05-20T19:46:43.143Z,17.40
2019-05-20T19:49:13.041Z,17.30
2019-05-20T19:51:42.819Z,17.30
2019-05-20T19:54:12.487Z,17.20
2019-05-20T19:56:42.165Z,17.20
2019-05-20T19:59:12.021Z,17.10
2019-05-20T20:01:41.707Z,17.10
2019-05-20T20:04:11.465Z,17.00
2019-05-20T20:06:41.164Z,17.00
2019-05-20T20:09:11.030Z,16.90
2019-05-20T20:11:40.718Z,16.90
2019-05-20T20:14:10.407Z,16.80
2019-05-20T20:16:40.205Z,16.80
2019-05-20T20:19:09.822Z,16.70
2019-05-20T20:21:39.507Z,16.70
2019-05-20T20:24:09.577Z,16.60
2019-05-20T20:26:40.308Z,16.60
2019-05-20T20:29:11.250Z,16.50
2019-05-20T20:31:41.083Z,16.50
2019-05-20T20:34:10.769Z,16.40
2019-05-20T20:36:40.507Z,16.40
2019-05-20T20:39:10.297Z,16.40
2019-05-20T20:41:40.042Z,16.40
2019-05-20T20:44:09.682Z,16.40
2019-05-20T20:46:40.697Z,16.30
2019-05-20T20:49:10.441Z,16.40
2019-05-20T20:51:40.250Z,16.40
2019-05-20T20:54:10.099Z,16.40
2019-05-20T20:56:39.928Z,16.30
2019-05-20T20:59:09.614Z,16.40
2019-05-20T21:01:39.342Z,16.40
2019-05-20T21:04:09.027Z,16.40
2019-05-20T21:06:38.782Z,16.50
2019-05-20T21:09:08.522Z,16.50
2019-05-20T21:11:38.177Z,16.50
2019-05-20T21:14:07.846Z,16.50
2019-05-20T21:16:37.577Z,16.60
2019-05-20T21:19:07.330Z,16.60
2019-05-20T21:21:37.080Z,16.60
2019-05-20T21:24:06.810Z,16.60
2019-05-20T21:26:36.553Z,16.60
2019-05-20T21:29:06.245Z,16.60
2019-05-20T21:31:35.938Z,16.60
2019-05-20T21:34:06.733Z,16.60
2019-05-20T21:36:47.250Z,16.60
2019-05-20T21:39:07.751Z,16.60
2019-05-20T21:41:37.472Z,16.60
2019-05-20T21:44:07.124Z,16.70
2019-05-20T21:46:36.809Z,16.60
2019-05-20T21:49:06.502Z,16.60
2019-05-20T21:51:36.222Z,16.60
2019-05-20T21:54:05.902Z,16.60
2019-05-20T21:56:36.601Z,16.60
2019-05-20T21:59:07.265Z,16.50
2019-05-20T22:01:37.230Z,16.50
2019-05-20T22:04:06.985Z,16.50
2019-05-20T22:06:36.681Z,16.50
2019-05-20T22:09:07.190Z,16.50
2019-05-20T22:11:36.813Z,16.50
2019-05-20T22:14:06.610Z,16.40
2019-05-20T22:16:36.522Z,16.40
2019-05-20T22:19:06.363Z,16.40
2019-05-20T22:21:42.198Z,16.40
2019-05-20T22:24:11.829Z,16.40
2019-05-20T22:26:41.462Z,16.30
2019-05-20T22:29:11.118Z,16.20
2019-05-20T22:31:40.862Z,16.20
2019-05-20T22:34:10.675Z,16.20
2019-05-20T22:36:40.301Z,16.10
2019-05-20T22:39:09.984Z,16.10
2019-05-20T22:41:39.593Z,16.00
2019-05-20T22:44:09.281Z,15.90
2019-05-20T22:46:38.998Z,15.90
2019-05-20T22:49:08.626Z,15.80
2019-05-20T22:51:38.347Z,15.80
2019-05-20T22:54:08.231Z,15.70
2019-05-20T22:56:37.879Z,15.60
2019-05-20T22:59:07.611Z,15.60
2019-05-20T23:01:37.250Z,15.60
2019-05-20T23:04:06.905Z,15.60
2019-05-20T23:06:36.634Z,15.60
2019-05-20T23:09:06.933Z,15.50
2019-05-20T23:11:36.636Z,15.50
2019-05-20T23:14:06.267Z,15.50
2019-05-20T23:16:35.940Z,15.50
2019-05-20T23:19:05.617Z,15.50
2019-05-20T23:21:35.259Z,15.50
2019-05-20T23:24:05.021Z,15.50
2019-05-20T23:26:34.712Z,15.50
2019-05-20T23:29:05.598Z,15.40
2019-05-20T23:31:35.222Z,15.40
2019-05-20T23:34:12.926Z,15.40
2019-05-20T23:36:36.518Z,15.40
2019-05-20T23:39:07.640Z,15.30
2019-05-20T23:41:37.479Z,15.30
2019-05-20T23:44:07.326Z,15.30
2019-05-20T23:46:36.941Z,15.30
2019-05-20T23:49:07.572Z,15.20
2019-05-20T23:51:37.227Z,15.10
2019-05-20T23:54:06.894Z,15.10
2019-05-20T23:56:36.517Z,15.00
2019-05-20T23:59:06.230Z,15.00
